Time;durP1;ratioP1;P1;durP2;ratioP2;P2;SDS_P1;SDS_P2;PMS_P1;PMS_P2;Temp;Humidity;BMP_temperature;BMP_pressure;BME280_temperature;BME280_humidity;BME280_pressure;Samples;Min_cycle;Max_cycle;Signal;HPM_P1;HPM_P2
2022/09/19 00:01:05;;;;;;;3.75;1.40;;;;;;;;;;4962372;28;20030;-76
2022/09/19 00:03:32;;;;;;;2.10;1.50;;;;;;;;;;4960503;28;20036;-76
2022/09/19 00:05:58;;;;;;;1.60;1.50;;;;;;;;;;4959956;28;20027;-75
2022/09/19 00:08:24;;;;;;;1.95;1.45;;;;;;;;;;4956773;28;20039;-76
2022/09/19 00:10:51;;;;;;;1.35;1.25;;;;;;;;;;4957896;28;20027;-76
2022/09/19 00:13:18;;;;;;;1.70;1.60;;;;;;;;;;4967820;28;20035;-75
2022/09/19 00:15:49;;;;;;;3.22;1.50;;;;;;;;;;4962647;28;20074;-76
2022/09/19 00:18:16;;;;;;;1.40;1.30;;;;;;;;;;4962679;29;20062;-77
2022/09/19 00:20:43;;;;;;;1.50;1.40;;;;;;;;;;4958448;28;20106;-76
2022/09/19 00:26:01;;;;;;;1.80;1.70;;;;;;;;;;4955622;28;20054;-76
2022/09/19 00:28:28;;;;;;;1.70;1.60;;;;;;;;;;4955611;28;20079;-75
2022/09/19 00:30:55;;;;;;;2.45;1.70;;;;;;;;;;4956519;29;20047;-75
2022/09/19 00:33:29;;;;;;;4.05;1.80;;;;;;;;;;4952699;28;20030;-75
2022/09/19 00:35:55;;;;;;;2.65;1.83;;;;;;;;;;4957405;28;20039;-76
2022/09/19 00:38:22;;;;;;;3.17;2.10;;;;;;;;;;4969965;28;20050;-75
2022/09/19 00:40:49;;;;;;;2.53;1.92;;;;;;;;;;4964275;29;20042;-76
2022/09/19 00:43:15;;;;;;;1.80;1.70;;;;;;;;;;4962935;28;20122;-75
2022/09/19 00:45:41;;;;;;;3.50;2.20;;;;;;;;;;4963210;29;20078;-76
2022/09/19 00:48:09;;;;;;;2.25;1.92;;;;;;;;;;4959739;28;20031;-76
2022/09/19 00:50:35;;;;;;;3.15;2.03;;;;;;;;;;4960771;28;20070;-76
2022/09/19 00:53:03;;;;;;;2.65;2.15;;;;;;;;;;4941999;28;20027;-75
2022/09/19 00:55:29;;;;;;;2.50;2.10;;;;;;;;;;4960691;28;20027;-75
2022/09/19 00:58:13;;;;;;;3.55;2.10;;;;;;;;;;4960517;29;20039;-76
2022/09/19 01:00:39;;;;;;;3.88;2.00;;;;;;;;;;4958619;29;20441;-76
2022/09/19 01:03:09;;;;;;;3.13;2.00;;;;;;;;;;4955552;28;20039;-76
2022/09/19 01:05:58;;;;;;;3.33;2.22;;;;;;;;;;4953244;28;20114;-74
2022/09/19 01:08:28;;;;;;;2.35;2.10;;;;;;;;;;4958093;28;20463;-75
2022/09/19 01:10:57;;;;;;;3.05;2.33;;;;;;;;;;4982608;28;20531;-74
2022/09/19 01:13:30;;;;;;;3.30;2.17;;;;;;;;;;4967815;28;20098;-75
2022/09/19 01:16:03;;;;;;;2.85;2.20;;;;;;;;;;4954946;28;20023;-75
2022/09/19 01:18:32;;;;;;;6.20;2.03;;;;;;;;;;4954095;29;20029;-75
2022/09/19 01:20:58;;;;;;;3.03;2.03;;;;;;;;;;4949100;29;20031;-74
2022/09/19 01:23:25;;;;;;;3.75;2.15;;;;;;;;;;4953966;28;20137;-74
2022/09/19 01:26:10;;;;;;;4.10;2.10;;;;;;;;;;4954676;28;20035;-74
2022/09/19 01:28:51;;;;;;;3.40;2.15;;;;;;;;;;4953303;28;20059;-74
2022/09/19 01:31:22;;;;;;;2.00;1.80;;;;;;;;;;4947877;28;20034;-75
2022/09/19 01:33:57;;;;;;;3.28;2.05;;;;;;;;;;4955665;28;20388;-75
2022/09/19 01:36:30;;;;;;;3.60;2.03;;;;;;;;;;4943958;28;20019;-74
2022/09/19 01:38:57;;;;;;;3.83;2.25;;;;;;;;;;4953690;28;20023;-74
2022/09/19 01:41:23;;;;;;;2.28;1.85;;;;;;;;;;4955557;29;20039;-76
2022/09/19 01:43:50;;;;;;;3.65;2.70;;;;;;;;;;4954535;29;20126;-74
2022/09/19 01:46:36;;;;;;;5.75;3.25;;;;;;;;;;4952196;28;20039;-74
2022/09/19 01:49:13;;;;;;;5.18;2.50;;;;;;;;;;4956751;29;20058;-74
2022/09/19 01:51:44;;;;;;;5.28;3.03;;;;;;;;;;4953824;29;20469;-74
2022/09/19 01:54:17;;;;;;;5.93;3.42;;;;;;;;;;4953730;29;20027;-75
2022/09/19 01:56:56;;;;;;;6.28;3.45;;;;;;;;;;4955137;28;20039;-75
2022/09/19 01:59:28;;;;;;;8.27;3.50;;;;;;;;;;4960412;28;20110;-75
2022/09/19 02:02:00;;;;;;;4.28;2.90;;;;;;;;;;4950662;29;20405;-76
2022/09/19 02:04:36;;;;;;;3.67;2.63;;;;;;;;;;4958643;29;20046;-75
2022/09/19 02:07:07;;;;;;;4.28;2.60;;;;;;;;;;4947830;28;20528;-76
2022/09/19 02:09:45;;;;;;;5.28;2.88;;;;;;;;;;4960223;29;20035;-75
2022/09/19 02:12:16;;;;;;;3.60;2.50;;;;;;;;;;4960640;29;20019;-74
2022/09/19 02:14:50;;;;;;;4.03;2.60;;;;;;;;;;4958657;29;20027;-75
2022/09/19 02:17:21;;;;;;;3.28;2.35;;;;;;;;;;4958670;28;20026;-73
2022/09/19 02:19:50;;;;;;;3.70;2.40;;;;;;;;;;4956501;28;20028;-75
2022/09/19 02:22:21;;;;;;;5.15;2.50;;;;;;;;;;4956129;28;20046;-75
2022/09/19 02:24:48;;;;;;;6.25;2.80;;;;;;;;;;4959224;28;20058;-76
2022/09/19 02:27:17;;;;;;;3.78;2.60;;;;;;;;;;4959676;28;20103;-75
2022/09/19 02:29:46;;;;;;;5.65;2.60;;;;;;;;;;4959000;28;20023;-76
2022/09/19 02:32:13;;;;;;;5.90;2.75;;;;;;;;;;4959658;29;20019;-73
2022/09/19 02:34:39;;;;;;;5.68;2.90;;;;;;;;;;4960969;29;20173;-75
2022/09/19 02:37:28;;;;;;;5.45;2.80;;;;;;;;;;4961682;29;20077;-75
2022/09/19 02:40:04;;;;;;;3.17;2.35;;;;;;;;;;4965284;28;20039;-73
2022/09/19 02:42:33;;;;;;;8.00;2.85;;;;;;;;;;4964149;28;20051;-75
2022/09/19 02:45:12;;;;;;;4.35;2.60;;;;;;;;;;4967660;28;20119;-76
2022/09/19 02:47:54;;;;;;;5.70;3.03;;;;;;;;;;4966701;28;20358;-76
2022/09/19 02:50:25;;;;;;;6.60;3.17;;;;;;;;;;4967599;28;20026;-75
2022/09/19 02:52:53;;;;;;;5.72;3.35;;;;;;;;;;4960607;28;20031;-75
2022/09/19 02:55:46;;;;;;;6.68;3.22;;;;;;;;;;4963416;28;20098;-75
2022/09/19 02:58:15;;;;;;;4.05;3.15;;;;;;;;;;4958770;29;20540;-76
2022/09/19 03:00:41;;;;;;;6.32;3.17;;;;;;;;;;4958999;28;20033;-73
2022/09/19 03:06:01;;;;;;;4.50;2.97;;;;;;;;;;4962311;28;20409;-74
2022/09/19 03:08:30;;;;;;;7.25;3.22;;;;;;;;;;4959793;28;20055;-75
2022/09/19 03:10:58;;;;;;;4.40;2.88;;;;;;;;;;4938947;29;20035;-74
2022/09/19 03:13:25;;;;;;;6.75;3.03;;;;;;;;;;4956992;28;20030;-75
2022/09/19 03:15:56;;;;;;;5.05;3.17;;;;;;;;;;4961386;29;20094;-75
2022/09/19 03:18:24;;;;;;;5.55;2.97;;;;;;;;;;4970093;28;20059;-74
2022/09/19 03:20:55;;;;;;;6.80;3.10;;;;;;;;;;4964964;29;20038;-77
2022/09/19 03:23:28;;;;;;;4.82;2.85;;;;;;;;;;4974434;28;20378;-74
2022/09/19 03:25:54;;;;;;;9.35;3.20;;;;;;;;;;4959616;28;20030;-74
2022/09/19 03:28:21;;;;;;;4.13;2.95;;;;;;;;;;4959802;28;20106;-74
2022/09/19 03:30:48;;;;;;;6.22;3.17;;;;;;;;;;4960810;29;20023;-74
2022/09/19 03:33:15;;;;;;;3.75;2.65;;;;;;;;;;4961587;28;20090;-75
2022/09/19 03:35:42;;;;;;;4.38;2.70;;;;;;;;;;4965452;29;20038;-74
2022/09/19 03:38:09;;;;;;;4.78;3.17;;;;;;;;;;4972724;28;20038;-76
2022/09/19 03:40:37;;;;;;;6.07;4.00;;;;;;;;;;4973130;28;20107;-74
2022/09/19 03:43:04;;;;;;;8.27;4.38;;;;;;;;;;4957003;28;20032;-74
2022/09/19 03:45:30;;;;;;;6.35;4.13;;;;;;;;;;4954536;28;20381;-74
2022/09/19 03:47:56;;;;;;;7.35;4.65;;;;;;;;;;4938552;28;20031;-75
2022/09/19 03:50:24;;;;;;;7.75;4.38;;;;;;;;;;4957889;29;20027;-74
2022/09/19 03:52:50;;;;;;;10.10;5.70;;;;;;;;;;4960178;28;20027;-74
2022/09/19 03:55:17;;;;;;;9.98;5.50;;;;;;;;;;4961244;28;20101;-74
2022/09/19 03:57:43;;;;;;;9.25;5.78;;;;;;;;;;4955073;28;20027;-74
2022/09/19 04:00:10;;;;;;;10.23;5.75;;;;;;;;;;4957409;28;20082;-75
2022/09/19 04:02:36;;;;;;;10.52;6.10;;;;;;;;;;4955168;29;20039;-74
2022/09/19 04:05:02;;;;;;;11.00;7.00;;;;;;;;;;4956591;28;20035;-75
2022/09/19 04:07:28;;;;;;;11.50;6.43;;;;;;;;;;4952651;28;20031;-73
2022/09/19 04:09:54;;;;;;;9.88;6.88;;;;;;;;;;4958091;29;20058;-75
2022/09/19 04:12:21;;;;;;;11.27;6.80;;;;;;;;;;4957756;29;20023;-72
2022/09/19 04:14:48;;;;;;;9.07;6.43;;;;;;;;;;4970439;28;20544;-75
2022/09/19 04:17:14;;;;;;;10.45;6.82;;;;;;;;;;4956588;29;20027;-74
2022/09/19 04:19:42;;;;;;;8.45;6.13;;;;;;;;;;4957270;28;20031;-73
2022/09/19 04:22:09;;;;;;;11.07;6.78;;;;;;;;;;4960044;29;20035;-74
2022/09/19 04:24:39;;;;;;;10.00;6.72;;;;;;;;;;4956685;29;20057;-74
2022/09/19 04:27:08;;;;;;;8.68;6.22;;;;;;;;;;4958758;29;20131;-74
2022/09/19 04:29:35;;;;;;;12.20;7.13;;;;;;;;;;4958075;29;20031;-74
2022/09/19 04:32:02;;;;;;;10.40;6.07;;;;;;;;;;4958090;28;20042;-72
2022/09/19 04:34:28;;;;;;;12.57;6.07;;;;;;;;;;4964312;29;20042;-75
2022/09/19 04:37:02;;;;;;;9.55;6.40;;;;;;;;;;4964092;29;20042;-74
2022/09/19 04:39:42;;;;;;;8.65;5.50;;;;;;;;;;4959525;28;20119;-72
2022/09/19 04:42:08;;;;;;;8.63;5.80;;;;;;;;;;4955069;28;20481;-74
2022/09/19 04:44:35;;;;;;;10.10;6.63;;;;;;;;;;4958256;28;20043;-73
2022/09/19 04:47:04;;;;;;;9.25;5.93;;;;;;;;;;4959812;28;20026;-75
2022/09/19 04:49:41;;;;;;;13.35;6.05;;;;;;;;;;4961152;28;20102;-78
2022/09/19 04:52:14;;;;;;;8.45;6.22;;;;;;;;;;4965469;28;20022;-74
2022/09/19 04:54:50;;;;;;;8.52;5.32;;;;;;;;;;4963231;28;20076;-75
2022/09/19 04:57:16;;;;;;;7.07;4.93;;;;;;;;;;4953294;29;20049;-75
2022/09/19 04:59:49;;;;;;;6.78;4.85;;;;;;;;;;4951411;29;20278;-75
2022/09/19 05:02:15;;;;;;;6.25;4.70;;;;;;;;;;4954229;29;20027;-75
2022/09/19 05:04:41;;;;;;;7.43;4.95;;;;;;;;;;4945728;29;20055;-75
2022/09/19 05:07:08;;;;;;;7.03;4.60;;;;;;;;;;4936125;29;20050;-72
2022/09/19 05:09:36;;;;;;;7.80;4.18;;;;;;;;;;4943001;29;20063;-72
2022/09/19 05:12:08;;;;;;;8.32;4.10;;;;;;;;;;4942320;29;20032;-75
2022/09/19 05:14:34;;;;;;;7.32;4.10;;;;;;;;;;4943230;29;20122;-74
2022/09/19 05:17:00;;;;;;;6.25;4.05;;;;;;;;;;4940693;29;20098;-75
2022/09/19 05:19:27;;;;;;;7.20;3.88;;;;;;;;;;4925678;29;20071;-77
2022/09/19 05:21:55;;;;;;;5.22;3.40;;;;;;;;;;4944747;29;20032;-76
2022/09/19 05:24:22;;;;;;;6.78;3.03;;;;;;;;;;4934054;29;20051;-75
2022/09/19 05:26:48;;;;;;;8.98;5.97;;;;;;;;;;4935662;29;20036;-75
2022/09/19 05:29:20;;;;;;;8.25;4.88;;;;;;;;;;4943596;29;20024;-75
2022/09/19 05:31:47;;;;;;;4.30;3.10;;;;;;;;;;4937613;29;20038;-76
2022/09/19 05:34:13;;;;;;;6.03;2.85;;;;;;;;;;4939847;29;20044;-75
2022/09/19 05:36:40;;;;;;;3.92;2.80;;;;;;;;;;4937530;29;20063;-76
2022/09/19 05:39:09;;;;;;;2.92;2.60;;;;;;;;;;4933812;29;20106;-76
2022/09/19 05:41:39;;;;;;;3.67;2.63;;;;;;;;;;4979439;28;20042;-79
2022/09/19 05:44:06;;;;;;;4.18;2.50;;;;;;;;;;4985616;28;20055;-78
2022/09/19 05:46:34;;;;;;;3.05;2.13;;;;;;;;;;4949239;29;20019;-78
2022/09/19 05:49:00;;;;;;;3.05;2.30;;;;;;;;;;4966192;29;20044;-75
2022/09/19 05:51:29;;;;;;;2.72;2.17;;;;;;;;;;4962741;28;20012;-77
2022/09/19 05:53:56;;;;;;;6.28;2.20;;;;;;;;;;4972014;29;20024;-75
2022/09/19 05:56:29;;;;;;;3.42;2.28;;;;;;;;;;4968407;28;20031;-73
2022/09/19 05:58:56;;;;;;;3.20;2.50;;;;;;;;;;4965435;28;20028;-73
2022/09/19 06:01:22;;;;;;;3.20;2.33;;;;;;;;;;4972199;28;20034;-76
2022/09/19 06:03:48;;;;;;;4.88;2.60;;;;;;;;;;4962961;29;20437;-77
2022/09/19 06:06:18;;;;;;;2.83;2.20;;;;;;;;;;4960439;29;20027;-75
2022/09/19 06:08:44;;;;;;;2.85;2.25;;;;;;;;;;4961158;29;20106;-77
2022/09/19 06:11:48;;;;;;;2.97;2.28;;;;;;;;;;4971534;28;20051;-80
2022/09/19 06:14:23;;;;;;;3.60;2.28;;;;;;;;;;4956031;28;20039;-76
2022/09/19 06:16:49;;;;;;;4.75;2.40;;;;;;;;;;4965160;28;20024;-76
2022/09/19 06:19:17;;;;;;;4.60;2.70;;;;;;;;;;4967072;29;20031;-77
2022/09/19 06:21:44;;;;;;;4.10;2.58;;;;;;;;;;4965499;28;20073;-76
2022/09/19 06:24:11;;;;;;;4.95;2.50;;;;;;;;;;4963073;28;20151;-75
2022/09/19 06:26:37;;;;;;;3.60;2.40;;;;;;;;;;4963218;29;20038;-76
2022/09/19 06:29:06;;;;;;;4.13;2.50;;;;;;;;;;4968594;28;20958;-76
2022/09/19 06:31:33;;;;;;;3.42;2.40;;;;;;;;;;4970391;29;20511;-76
2022/09/19 06:34:13;;;;;;;5.85;2.90;;;;;;;;;;4971107;28;20058;-80
2022/09/19 06:36:39;;;;;;;3.83;2.72;;;;;;;;;;4955070;28;20039;-75
2022/09/19 06:39:06;;;;;;;8.70;3.22;;;;;;;;;;4964068;28;20035;-77
2022/09/19 06:42:09;;;;;;;4.18;2.88;;;;;;;;;;4962900;28;20027;-81
2022/09/19 06:44:54;;;;;;;6.55;2.63;;;;;;;;;;4955915;29;20047;-79
2022/09/19 06:47:20;;;;;;;3.60;2.42;;;;;;;;;;4962830;28;20033;-74
2022/09/19 06:49:46;;;;;;;6.50;2.92;;;;;;;;;;4967784;28;20082;-78
2022/09/19 06:52:13;;;;;;;4.20;2.60;;;;;;;;;;4966879;28;20476;-75
2022/09/19 06:54:39;;;;;;;3.05;2.70;;;;;;;;;;4970364;28;20031;-75
2022/09/19 06:57:05;;;;;;;6.93;3.10;;;;;;;;;;4995692;28;20060;-78
2022/09/19 06:59:33;;;;;;;3.72;2.90;;;;;;;;;;4964969;28;20027;-76
2022/09/19 07:02:01;;;;;;;3.92;2.60;;;;;;;;;;4959776;28;20046;-76
2022/09/19 07:04:33;;;;;;;3.80;2.58;;;;;;;;;;4967618;29;20074;-79
2022/09/19 07:07:16;;;;;;;5.45;2.78;;;;;;;;;;4953869;28;20040;-80
2022/09/19 07:09:45;;;;;;;3.75;2.70;;;;;;;;;;4966133;29;20031;-78
2022/09/19 07:12:14;;;;;;;5.43;3.13;;;;;;;;;;4944024;29;20019;-80
2022/09/19 07:14:41;;;;;;;4.68;2.95;;;;;;;;;;4971712;29;20032;-76
2022/09/19 07:17:08;;;;;;;3.25;2.83;;;;;;;;;;4968296;28;20062;-77
2022/09/19 07:19:39;;;;;;;5.65;2.70;;;;;;;;;;4960474;28;20079;-77
2022/09/19 07:22:16;;;;;;;4.93;3.00;;;;;;;;;;4940029;29;20035;-77
2022/09/19 07:24:49;;;;;;;6.28;3.35;;;;;;;;;;4968337;29;20051;-80
2022/09/19 07:27:21;;;;;;;5.35;2.67;;;;;;;;;;4955826;28;20034;-75
2022/09/19 07:29:49;;;;;;;3.85;2.38;;;;;;;;;;4961199;28;20078;-74
2022/09/19 07:32:15;;;;;;;5.45;2.60;;;;;;;;;;4963320;29;20031;-73
2022/09/19 07:34:59;;;;;;;5.25;2.65;;;;;;;;;;4966361;28;20082;-78
2022/09/19 07:37:27;;;;;;;4.50;2.80;;;;;;;;;;4963671;28;20106;-76
2022/09/19 07:39:54;;;;;;;5.18;2.75;;;;;;;;;;4963936;28;20035;-79
2022/09/19 07:42:20;;;;;;;4.00;2.50;;;;;;;;;;4944251;29;20020;-76
2022/09/19 07:44:46;;;;;;;5.00;2.60;;;;;;;;;;4961470;28;20485;-76
2022/09/19 07:47:28;;;;;;;4.50;2.85;;;;;;;;;;4964507;28;20031;-77
2022/09/19 07:49:54;;;;;;;5.03;2.95;;;;;;;;;;4944993;28;20039;-77
2022/09/19 07:52:28;;;;;;;5.50;2.90;;;;;;;;;;4973094;28;20078;-80
2022/09/19 07:55:14;;;;;;;6.43;3.15;;;;;;;;;;4972646;28;20055;-79
2022/09/19 07:57:53;;;;;;;6.57;3.85;;;;;;;;;;4967454;28;20038;-78
2022/09/19 08:00:20;;;;;;;7.45;3.42;;;;;;;;;;4976011;28;20031;-78
2022/09/19 08:02:54;;;;;;;6.65;3.10;;;;;;;;;;4965503;28;20046;-78
2022/09/19 08:05:23;;;;;;;5.28;2.90;;;;;;;;;;4969449;28;20038;-80
2022/09/19 08:07:49;;;;;;;6.38;3.05;;;;;;;;;;4973750;28;20035;-78
2022/09/19 08:13:59;;;;;;;7.28;3.30;;;;;;;;;;4969065;28;20041;-80
2022/09/19 08:16:32;;;;;;;7.50;3.47;;;;;;;;;;4934559;29;20063;-78
2022/09/19 08:19:02;;;;;;;5.93;3.20;;;;;;;;;;4947710;28;20042;-77
2022/09/19 08:21:30;;;;;;;4.40;3.00;;;;;;;;;;4931332;29;20401;-75
2022/09/19 08:23:56;;;;;;;6.90;3.50;;;;;;;;;;4939420;29;20078;-76
2022/09/19 08:26:24;;;;;;;4.95;3.33;;;;;;;;;;4947186;29;20036;-75
2022/09/19 08:28:51;;;;;;;4.65;2.88;;;;;;;;;;4942856;29;20032;-75
2022/09/19 08:31:17;;;;;;;7.22;4.72;;;;;;;;;;4939589;29;20115;-77
2022/09/19 08:33:45;;;;;;;6.57;4.57;;;;;;;;;;4940180;29;20032;-77
2022/09/19 08:36:12;;;;;;;7.22;4.38;;;;;;;;;;4929897;29;20032;-76
2022/09/19 08:38:38;;;;;;;7.30;4.63;;;;;;;;;;4932529;29;20036;-77
2022/09/19 08:41:13;;;;;;;6.78;4.60;;;;;;;;;;4935447;29;20058;-77
2022/09/19 08:43:51;;;;;;;8.05;4.78;;;;;;;;;;4937277;29;20110;-76
2022/09/19 08:46:18;;;;;;;5.70;3.95;;;;;;;;;;4937179;28;20039;-76
2022/09/19 08:54:15;;;;;;;6.95;3.40;;;;;;;;;;5012918;23;20055;-78
2022/09/19 08:56:42;;;;;;;10.60;4.57;;;;;;;;;;4956291;28;20044;-77
2022/09/19 08:59:33;;;;;;;7.95;3.83;;;;;;;;;;4957612;28;20032;-76
2022/09/19 09:02:30;;;;;;;5.93;4.85;;;;;;;;;;4967855;29;20058;-77
2022/09/19 09:05:11;;;;;;;6.22;4.72;;;;;;;;;;4969004;28;20083;-77
2022/09/19 09:07:47;;;;;;;8.70;5.57;;;;;;;;;;4964312;28;20043;-78
2022/09/19 09:10:40;;;;;;;7.47;4.63;;;;;;;;;;4948119;29;20147;-77
2022/09/19 09:13:17;;;;;;;8.75;4.57;;;;;;;;;;4874228;29;20069;-77
2022/09/19 09:16:06;;;;;;;8.23;4.93;;;;;;;;;;4876240;29;20033;-80
2022/09/19 09:18:38;;;;;;;8.27;5.07;;;;;;;;;;4869973;29;20052;-76
2022/09/19 09:21:08;;;;;;;11.57;6.00;;;;;;;;;;4858446;29;20037;-76
2022/09/19 09:23:43;;;;;;;9.73;5.80;;;;;;;;;;4862395;29;20528;-74
2022/09/19 09:26:36;;;;;;;6.80;5.32;;;;;;;;;;4856729;29;20074;-74
2022/09/19 09:29:22;;;;;;;6.80;5.40;;;;;;;;;;4885151;29;20029;-74
2022/09/19 09:31:56;;;;;;;9.18;5.53;;;;;;;;;;4895069;29;20077;-76
2022/09/19 09:34:40;;;;;;;8.15;5.78;;;;;;;;;;4893378;29;20609;-78
2022/09/19 09:37:29;;;;;;;6.63;4.70;;;;;;;;;;5315446;23;21220;-76
2022/09/19 09:43:06;;;;;;;6.30;3.15;;;;;;;;;;4912484;29;20061;-78
2022/09/19 09:45:44;;;;;;;4.13;3.08;;;;;;;;;;4902820;29;20030;-76
2022/09/19 09:48:16;;;;;;;3.97;3.40;;;;;;;;;;4901907;29;20052;-75
2022/09/19 09:51:01;;;;;;;3.97;3.15;;;;;;;;;;4902468;29;20075;-78
2022/09/19 09:53:35;;;;;;;3.65;2.65;;;;;;;;;;4908832;29;20048;-77
2022/09/19 09:56:18;;;;;;;4.72;3.20;;;;;;;;;;4910828;29;20047;-74
2022/09/19 09:58:50;;;;;;;4.47;3.25;;;;;;;;;;4914894;29;20505;-75
2022/09/19 10:04:24;;;;;;;3.60;2.95;;;;;;;;;;4913922;29;20072;-79
2022/09/19 10:07:19;;;;;;;4.07;2.97;;;;;;;;;;4915879;29;20052;-75
2022/09/19 10:09:50;;;;;;;6.20;2.90;;;;;;;;;;4896249;29;20053;-75
2022/09/19 10:12:21;;;;;;;4.78;3.17;;;;;;;;;;4900392;29;20031;-75
2022/09/19 10:14:58;;;;;;;3.17;2.53;;;;;;;;;;4900119;29;20037;-75
2022/09/19 10:17:25;;;;;;;5.45;2.72;;;;;;;;;;4882693;29;20033;-75
2022/09/19 10:20:12;;;;;;;4.60;3.20;;;;;;;;;;4942790;29;20031;-76
2022/09/19 10:22:38;;;;;;;5.80;3.63;;;;;;;;;;4968696;29;20044;-79
2022/09/19 10:25:09;;;;;;;5.13;3.40;;;;;;;;;;4970684;28;20071;-80
2022/09/19 10:27:39;;;;;;;3.25;2.92;;;;;;;;;;4971593;28;20031;-82
2022/09/19 10:30:19;;;;;;;5.75;3.30;;;;;;;;;;4972630;29;20039;-78
2022/09/19 10:33:26;;;;;;;43.17;9.93;;;;;;;;;;4976686;29;20038;-77
2022/09/19 10:36:35;;;;;;;9.68;4.13;;;;;;;;;;4982072;28;20027;-78
2022/09/19 10:39:30;;;;;;;42.55;8.50;;;;;;;;;;4973037;29;20122;-78
2022/09/19 10:41:56;;;;;;;9.05;4.72;;;;;;;;;;4968652;29;20028;-77
2022/09/19 10:44:34;;;;;;;9.80;4.80;;;;;;;;;;4975748;29;20078;-80
2022/09/19 10:47:28;;;;;;;11.00;4.28;;;;;;;;;;4980309;29;20079;-79
2022/09/19 10:50:19;;;;;;;15.15;4.38;;;;;;;;;;4964039;29;20031;-79
2022/09/19 10:52:51;;;;;;;6.70;3.80;;;;;;;;;;4978202;28;20026;-83
2022/09/19 11:01:02;;;;;;;22.58;4.93;;;;;;;;;;5218791;23;20059;-78
2022/09/19 11:06:35;;;;;;;5.00;3.15;;;;;;;;;;5060318;23;20055;-74
2022/09/19 11:09:07;;;;;;;10.38;3.53;;;;;;;;;;4966458;28;20069;-78
2022/09/19 11:11:46;;;;;;;7.82;3.20;;;;;;;;;;4992988;28;20493;-77
2022/09/19 11:14:19;;;;;;;14.35;4.43;;;;;;;;;;4984617;28;20492;-75
2022/09/19 11:16:53;;;;;;;6.03;3.00;;;;;;;;;;4982224;28;20034;-76
2022/09/19 11:19:28;;;;;;;5.45;3.13;;;;;;;;;;4979522;28;20027;-75
2022/09/19 11:21:56;;;;;;;4.22;2.65;;;;;;;;;;4982740;28;20026;-76
2022/09/19 11:24:31;;;;;;;5.50;2.58;;;;;;;;;;4980578;28;20062;-75
2022/09/19 11:26:58;;;;;;;6.97;3.28;;;;;;;;;;4975863;28;20480;-75
2022/09/19 11:29:25;;;;;;;7.05;2.63;;;;;;;;;;4968980;28;20027;-78
2022/09/19 11:32:08;;;;;;;7.50;2.88;;;;;;;;;;4972532;28;21949;-77
2022/09/19 11:34:50;;;;;;;6.03;2.90;;;;;;;;;;4965469;28;20045;-78
2022/09/19 11:37:28;;;;;;;3.95;3.10;;;;;;;;;;4961864;28;20035;-78
2022/09/19 11:40:13;;;;;;;5.22;2.42;;;;;;;;;;4980534;28;20458;-78
2022/09/19 11:43:01;;;;;;;3.50;2.30;;;;;;;;;;4977559;28;20041;-78
2022/09/19 11:45:30;;;;;;;5.10;2.67;;;;;;;;;;4983721;28;20412;-77
2022/09/19 11:48:16;;;;;;;3.63;2.40;;;;;;;;;;4982416;28;20106;-77
2022/09/19 11:54:30;;;;;;;6.13;2.60;;;;;;;;;;4971458;28;20157;-79
2022/09/19 11:57:22;;;;;;;7.27;3.10;;;;;;;;;;4903515;29;20049;-79
2022/09/19 12:03:36;;;;;;;6.53;3.25;;;;;;;;;;5085127;23;20864;-79
2022/09/19 12:06:14;;;;;;;7.80;3.20;;;;;;;;;;5087992;23;20054;-77
2022/09/19 12:08:59;;;;;;;7.60;3.00;;;;;;;;;;4954424;28;20114;-78
2022/09/19 12:11:31;;;;;;;4.50;2.65;;;;;;;;;;4961440;28;20047;-76
2022/09/19 12:13:59;;;;;;;4.65;2.80;;;;;;;;;;4963356;28;20086;-74
2022/09/19 12:16:35;;;;;;;6.18;2.70;;;;;;;;;;4954783;28;20401;-72
2022/09/19 12:19:03;;;;;;;6.13;3.22;;;;;;;;;;4951222;28;20038;-71
2022/09/19 12:21:35;;;;;;;3.38;2.30;;;;;;;;;;4952573;28;20034;-70
2022/09/19 12:26:53;;;;;;;14.02;6.97;;;;;;;;;;4954722;28;20102;-71
2022/09/19 12:29:19;;;;;;;8.73;3.92;;;;;;;;;;4944588;28;20404;-73
2022/09/19 12:31:50;;;;;;;4.80;3.40;;;;;;;;;;4955026;28;20039;-73
2022/09/19 12:34:21;;;;;;;6.63;2.97;;;;;;;;;;4954982;28;20023;-75
2022/09/19 12:36:54;;;;;;;4.20;2.50;;;;;;;;;;4955305;29;20027;-73
2022/09/19 12:39:42;;;;;;;2.90;2.25;;;;;;;;;;4937465;29;20031;-73
2022/09/19 12:42:12;;;;;;;2.25;1.90;;;;;;;;;;4953697;29;20027;-72
2022/09/19 12:44:38;;;;;;;5.30;2.20;;;;;;;;;;4953095;29;20533;-73
2022/09/19 12:47:22;;;;;;;4.13;2.25;;;;;;;;;;4948315;28;20504;-72
2022/09/19 12:49:50;;;;;;;4.13;1.80;;;;;;;;;;4953002;28;20042;-72
2022/09/19 12:52:18;;;;;;;4.68;2.03;;;;;;;;;;4951013;28;20101;-72
2022/09/19 12:54:44;;;;;;;3.25;2.03;;;;;;;;;;4959465;28;20027;-73
2022/09/19 12:57:10;;;;;;;3.45;2.13;;;;;;;;;;4963895;28;20050;-72
2022/09/19 12:59:36;;;;;;;3.05;1.67;;;;;;;;;;4968447;28;20030;-73
2022/09/19 13:02:02;;;;;;;2.80;1.70;;;;;;;;;;4948318;28;20114;-73
2022/09/19 13:04:49;;;;;;;2.42;1.80;;;;;;;;;;4938628;29;20500;-73
2022/09/19 13:07:30;;;;;;;8.15;2.47;;;;;;;;;;4943898;28;20428;-73
2022/09/19 13:10:05;;;;;;;2.75;2.10;;;;;;;;;;4954506;28;20106;-73
2022/09/19 13:12:47;;;;;;;6.85;2.22;;;;;;;;;;4939746;28;20507;-73
2022/09/19 13:15:26;;;;;;;4.63;1.83;;;;;;;;;;4956720;28;20039;-73
2022/09/19 13:23:30;;;;;;;2.58;1.90;;;;;;;;;;4958769;28;20089;-73
2022/09/19 13:25:57;;;;;;;5.50;2.30;;;;;;;;;;4953511;28;20023;-74
2022/09/19 13:28:24;;;;;;;1.98;1.83;;;;;;;;;;4938455;28;20043;-73
2022/09/19 13:30:50;;;;;;;2.78;1.95;;;;;;;;;;4958581;28;20488;-73
2022/09/19 13:33:22;;;;;;;2.33;1.75;;;;;;;;;;4963287;28;20031;-73
2022/09/19 13:35:53;;;;;;;3.85;1.85;;;;;;;;;;4961748;28;20499;-73
2022/09/19 13:38:25;;;;;;;4.18;2.10;;;;;;;;;;4961651;28;20031;-73
2022/09/19 13:41:04;;;;;;;4.47;2.20;;;;;;;;;;4956768;28;20500;-73
2022/09/19 13:43:38;;;;;;;2.30;2.00;;;;;;;;;;4955123;28;20035;-73
2022/09/19 13:46:06;;;;;;;4.40;2.25;;;;;;;;;;4972011;28;20026;-73
2022/09/19 13:48:47;;;;;;;4.88;2.13;;;;;;;;;;4960239;28;20024;-73
2022/09/19 13:51:33;;;;;;;2.75;2.10;;;;;;;;;;4954372;29;20027;-73
2022/09/19 13:54:15;;;;;;;4.25;2.40;;;;;;;;;;4893201;29;20044;-74
2022/09/19 13:56:41;;;;;;;4.03;2.47;;;;;;;;;;4887191;29;20040;-73
2022/09/19 13:59:19;;;;;;;3.47;2.50;;;;;;;;;;4893337;29;20037;-73
2022/09/19 14:02:02;;;;;;;5.72;2.30;;;;;;;;;;4894632;29;20506;-73
2022/09/19 14:04:54;;;;;;;5.20;2.20;;;;;;;;;;4891308;29;20052;-73
2022/09/19 14:07:37;;;;;;;4.30;2.45;;;;;;;;;;4890201;29;20647;-73
2022/09/19 14:10:06;;;;;;;3.67;2.97;;;;;;;;;;4893896;29;20607;-73
2022/09/19 14:12:35;;;;;;;8.35;2.30;;;;;;;;;;4893107;29;20048;-73
2022/09/19 14:15:02;;;;;;;3.90;2.45;;;;;;;;;;4893555;29;20119;-73
2022/09/19 14:17:33;;;;;;;5.90;2.78;;;;;;;;;;4896751;29;20037;-73
2022/09/19 14:20:05;;;;;;;3.13;2.50;;;;;;;;;;4912529;29;20024;-73
2022/09/19 14:22:38;;;;;;;3.75;2.70;;;;;;;;;;4896005;29;20072;-73
2022/09/19 14:25:19;;;;;;;3.05;2.28;;;;;;;;;;4894591;29;20040;-73
2022/09/19 14:28:03;;;;;;;4.40;2.38;;;;;;;;;;4895877;29;20033;-73
2022/09/19 14:30:45;;;;;;;4.72;2.25;;;;;;;;;;4913613;28;20039;-72
2022/09/19 14:33:26;;;;;;;3.97;2.55;;;;;;;;;;4964125;28;20055;-73
2022/09/19 14:36:02;;;;;;;5.00;2.85;;;;;;;;;;4954886;29;20059;-72
2022/09/19 14:38:43;;;;;;;3.75;2.70;;;;;;;;;;4957113;28;20050;-73
2022/09/19 14:41:28;;;;;;;5.30;3.10;;;;;;;;;;4967849;28;20407;-73
2022/09/19 14:44:03;;;;;;;4.95;2.80;;;;;;;;;;4950860;28;20042;-74
2022/09/19 14:46:52;;;;;;;5.15;3.08;;;;;;;;;;4960804;28;20019;-73
2022/09/19 14:49:27;;;;;;;4.43;2.72;;;;;;;;;;4961877;28;20038;-73
2022/09/19 14:51:56;;;;;;;4.25;2.30;;;;;;;;;;4931734;29;20039;-73
2022/09/19 14:54:26;;;;;;;4.53;2.70;;;;;;;;;;4952147;28;20030;-73
2022/09/19 14:57:00;;;;;;;5.07;2.67;;;;;;;;;;4953758;29;20043;-73
2022/09/19 14:59:26;;;;;;;4.72;2.65;;;;;;;;;;4942152;28;20765;-73
2022/09/19 15:01:55;;;;;;;5.65;2.75;;;;;;;;;;4953406;28;20089;-73
2022/09/19 15:04:23;;;;;;;5.10;2.65;;;;;;;;;;4956055;28;20044;-73
2022/09/19 15:06:57;;;;;;;3.85;2.55;;;;;;;;;;4954418;28;20048;-73
2022/09/19 15:09:23;;;;;;;7.28;2.78;;;;;;;;;;4956983;28;20515;-80
2022/09/19 15:11:55;;;;;;;5.55;2.38;;;;;;;;;;4952115;28;20027;-73
2022/09/19 15:14:22;;;;;;;5.63;2.65;;;;;;;;;;4943220;28;20059;-71
2022/09/19 15:16:51;;;;;;;5.38;2.70;;;;;;;;;;4952372;28;20114;-72
2022/09/19 15:19:17;;;;;;;11.38;2.97;;;;;;;;;;4951299;28;20031;-72
2022/09/19 15:21:46;;;;;;;3.65;2.60;;;;;;;;;;4956656;28;20105;-73
2022/09/19 15:24:13;;;;;;;5.25;2.30;;;;;;;;;;4953619;28;20075;-72
2022/09/19 15:26:44;;;;;;;4.93;3.08;;;;;;;;;;4953442;28;20055;-71
2022/09/19 15:29:40;;;;;;;5.45;2.70;;;;;;;;;;4956905;28;20026;-72
2022/09/19 15:32:08;;;;;;;3.90;2.65;;;;;;;;;;4960586;28;20173;-72
2022/09/19 15:34:34;;;;;;;4.20;2.53;;;;;;;;;;4963039;28;20027;-74
2022/09/19 15:37:03;;;;;;;8.35;2.40;;;;;;;;;;4964102;28;20050;-77
2022/09/19 15:39:30;;;;;;;3.60;2.35;;;;;;;;;;4957931;28;20027;-75
2022/09/19 15:41:56;;;;;;;3.47;2.50;;;;;;;;;;4966995;28;20553;-76
2022/09/19 15:44:35;;;;;;;2.92;2.42;;;;;;;;;;4975744;28;20053;-78
2022/09/19 15:47:11;;;;;;;7.28;3.05;;;;;;;;;;4989479;28;20082;-77
2022/09/19 15:49:50;;;;;;;5.50;2.97;;;;;;;;;;4976255;29;20023;-78
2022/09/19 15:52:39;;;;;;;5.18;3.10;;;;;;;;;;4950524;28;20068;-74
2022/09/19 15:55:06;;;;;;;6.82;2.92;;;;;;;;;;4935677;28;20050;-74
2022/09/19 15:57:53;;;;;;;3.53;2.40;;;;;;;;;;4963285;28;20023;-74
2022/09/19 16:00:20;;;;;;;3.50;1.73;;;;;;;;;;4943828;28;20113;-73